Airfield :
LOGIN :

Register | Disclaimer

   EN    FR    IT 

 










Legend :    VFR   Marginal VFR   IFR   Intensive IFR   Very Intensive IFR
Visi :
Ceiling :
>= 8 km
>= 3000ft
5 to 8 km
1000 to 3000 ft
1500m to 5 km
500 to 1000 ft
800 to 1500m
200 to 500 ft
< 800m
< 200 ft
Symbols :   Thunderstorms  Fog  Heavy snow  Heavy precipitations  Wind > 20 kt
SIGMETs :     Misc.  Thunderstorms  Icing  Turbulence  Mountain Waves  Volcanic Ashes






- Airport Elevation : 16 ft
- IATA code : SDR


LEXJ - Santander Cantabria

CURRENT METAR :
  • 110330Z 34007KT 300V050 9000 -RA OVC018 11/10 Q1014

EXPIRED METARs :
  • 110300Z AUTO 35009KT 240V040 4400 -RA BR FEW009 BKN015 BKN023 11/10 Q1013
  • 110230Z AUTO 34006KT 290V050 4800 -RA BR SCT017 BKN025 BKN060 11/11 Q1013 RERA
  • 110200Z AUTO 36009KT 320V040 3500 RA BR SCT008 BKN015 BKN024 12/11 Q1012
  • 110130Z AUTO 34004KT 220V030 1900 +RA BR BKN014 BKN020 BKN025 12/12 Q1012
  • 110100Z AUTO 25003KT 5000 -RA BR SCT017 SCT024 OVC060 12/12 Q1012

TAF TAF LEXJ
Valid from the 11 at 03:00 until the 12 at 03:00 UTC


110200Z 1103/1203 35008KT 9999 FEW010 BKN025 TX14/1113Z TN10/1106Z
PROB40
TEMPO 1103/1112 3000 RA BKN010
PROB30
TEMPO 1103/1106 1500 SHRA BR BKN010 SCT030TCU
PROB30
TEMPO 1103/1106 0800 RA BCFG BKN005



MET'MAP, your aeronautical weather chart ! - Copyright ORBIFLY December 2007 - Disclaimer

ORBIFLY MET'MAP TEAM :

Programming & Development : Alexandra Zaïnal
Concept & original design : Baudouin d'Aumeries
Assistance for programming : Marc-Olivier Méhu
Technical & hardware support : Manuel Goepfert

Contact : metmap@orbifly.com




SOURCES & CREDITS :

   NOAA